sensor_id;sensor_type;location;lat;lon;timestamp;pressure;altitude;pressure_sealevel;temperature;humidity
44531;BME280;30240;47.418;0.700;2023-04-28T00:00:35;100214.78271484375;;;15.64;94.2
44531;BME280;30240;47.418;0.700;2023-04-28T00:02:58;100209.84497070312;;;15.57;94.18
44531;BME280;30240;47.418;0.700;2023-04-28T00:05:23;100209.84497070312;;;15.57;94.18
44531;BME280;30240;47.418;0.700;2023-04-28T00:07:48;100211.92016601562;;;15.53;94.21
44531;BME280;30240;47.418;0.700;2023-04-28T00:10:13;100206.2255859375;;;15.49;94.21
44531;BME280;30240;47.418;0.700;2023-04-28T00:12:38;100198.9990234375;;;15.51;94.28
44531;BME280;30240;47.418;0.700;2023-04-28T00:15:04;100192.919921875;;;15.5;94.26
44531;BME280;30240;47.418;0.700;2023-04-28T00:17:28;100192.919921875;;;15.5;94.26
44531;BME280;30240;47.418;0.700;2023-04-28T00:19:53;100188.90380859375;;;15.46;94.25
44531;BME280;30240;47.418;0.700;2023-04-28T00:22:19;100181.67724609375;;;15.42;94.27
44531;BME280;30240;47.418;0.700;2023-04-28T00:24:43;100191.93725585938;;;15.46;94.23
44531;BME280;30240;47.418;0.700;2023-04-28T00:27:09;100194.07958984375;;;15.39;94.24
44531;BME280;30240;47.418;0.700;2023-04-28T00:29:34;100194.07958984375;;;15.39;94.24
44531;BME280;30240;47.418;0.700;2023-04-28T00:31:58;100194.59228515625;;;15.37;94.36
44531;BME280;30240;47.418;0.700;2023-04-28T00:34:23;100202.81372070312;;;15.33;94.37
44531;BME280;30240;47.418;0.700;2023-04-28T00:36:49;100205.07202148438;;;15.3;94.42
44531;BME280;30240;47.418;0.700;2023-04-28T00:39:14;100203.7841796875;;;15.29;94.51
44531;BME280;30240;47.418;0.700;2023-04-28T00:41:38;100203.7841796875;;;15.29;94.51
44531;BME280;30240;47.418;0.700;2023-04-28T00:44:03;100212.81127929688;;;15.25;94.6
44531;BME280;30240;47.418;0.700;2023-04-28T00:46:29;100205.21850585938;;;15.22;94.67
44531;BME280;30240;47.418;0.700;2023-04-28T00:48:54;100212.20092773438;;;15.2;94.73
44531;BME280;30240;47.418;0.700;2023-04-28T00:51:19;100214.54467773438;;;15.19;94.83
44531;BME280;30240;47.418;0.700;2023-04-28T00:53:44;100214.54467773438;;;15.19;94.83
44531;BME280;30240;47.418;0.700;2023-04-28T00:56:09;100215.99731445312;;;15.19;94.84
44531;BME280;30240;47.418;0.700;2023-04-28T00:58:34;100221.64306640625;;;15.15;94.9
44531;BME280;30240;47.418;0.700;2023-04-28T01:01:00;100217.9931640625;;;15.12;94.92
44531;BME280;30240;47.418;0.700;2023-04-28T01:03:24;100215.81420898438;;;15.12;94.98
44531;BME280;30240;47.418;0.700;2023-04-28T01:05:49;100215.81420898438;;;15.12;94.98
44531;BME280;30240;47.418;0.700;2023-04-28T01:08:14;100221.5576171875;;;15.09;94.97
44531;BME280;30240;47.418;0.700;2023-04-28T01:10:42;100228.10668945312;;;15.12;95.02
44531;BME280;30240;47.418;0.700;2023-04-28T01:13:04;100209.6923828125;;;15.12;95.0
44531;BME280;30240;47.418;0.700;2023-04-28T01:15:29;100205.38940429688;;;15.1;94.98
44531;BME280;30240;47.418;0.700;2023-04-28T01:17:54;100205.38940429688;;;15.1;94.98
44531;BME280;30240;47.418;0.700;2023-04-28T01:20:19;100210.986328125;;;15.1;94.9
44531;BME280;30240;47.418;0.700;2023-04-28T01:22:44;100211.13891601562;;;15.06;94.89
44531;BME280;30240;47.418;0.700;2023-04-28T01:25:09;100205.95092773438;;;15.12;94.85
44531;BME280;30240;47.418;0.700;2023-04-28T01:27:34;100197.021484375;;;15.08;94.76
44531;BME280;30240;47.418;0.700;2023-04-28T01:29:58;100196.37451171875;;;15.06;94.73
44531;BME280;30240;47.418;0.700;2023-04-28T01:32:24;100196.37451171875;;;15.06;94.73
44531;BME280;30240;47.418;0.700;2023-04-28T01:34:49;100197.93701171875;;;15.09;94.64
44531;BME280;30240;47.418;0.700;2023-04-28T01:37:14;100200.70190429688;;;15.06;94.59
44531;BME280;30240;47.418;0.700;2023-04-28T01:39:39;100199.84130859375;;;15.1;94.6
44531;BME280;30240;47.418;0.700;2023-04-28T01:42:04;100197.20458984375;;;15.01;94.63
44531;BME280;30240;47.418;0.700;2023-04-28T01:44:29;100197.20458984375;;;15.01;94.63
44531;BME280;30240;47.418;0.700;2023-04-28T01:46:54;100190.78369140625;;;15.03;94.64
44531;BME280;30240;47.418;0.700;2023-04-28T01:49:19;100188.31176757812;;;15.01;94.57
44531;BME280;30240;47.418;0.700;2023-04-28T01:51:43;100190.52124023438;;;14.99;94.45
44531;BME280;30240;47.418;0.700;2023-04-28T01:54:09;100187.3291015625;;;14.96;94.39
44531;BME280;30240;47.418;0.700;2023-04-28T01:56:34;100187.3291015625;;;14.96;94.39
44531;BME280;30240;47.418;0.700;2023-04-28T01:58:59;100196.6552734375;;;14.99;94.35
44531;BME280;30240;47.418;0.700;2023-04-28T02:01:24;100200.5615234375;;;14.98;94.3
44531;BME280;30240;47.418;0.700;2023-04-28T02:03:48;100202.13012695312;;;15.02;94.28
44531;BME280;30240;47.418;0.700;2023-04-28T02:06:14;100197.7783203125;;;15.01;94.22
44531;BME280;30240;47.418;0.700;2023-04-28T02:08:39;100197.7783203125;;;15.01;94.22
44531;BME280;30240;47.418;0.700;2023-04-28T02:11:04;100206.91528320312;;;15.01;94.15
44531;BME280;30240;47.418;0.700;2023-04-28T02:13:29;100209.814453125;;;15.01;94.05
44531;BME280;30240;47.418;0.700;2023-04-28T02:15:54;100210.3759765625;;;14.99;94.06
44531;BME280;30240;47.418;0.700;2023-04-28T02:18:18;100211.43798828125;;;14.96;94.11
44531;BME280;30240;47.418;0.700;2023-04-28T02:20:43;100211.43798828125;;;14.96;94.11
44531;BME280;30240;47.418;0.700;2023-04-28T02:23:08;100205.38940429688;;;14.96;94.13
44531;BME280;30240;47.418;0.700;2023-04-28T02:25:34;100202.1240234375;;;14.95;94.19
44531;BME280;30240;47.418;0.700;2023-04-28T02:27:59;100193.51806640625;;;15.01;94.11
44531;BME280;30240;47.418;0.700;2023-04-28T02:30:24;100191.20483398438;;;14.96;93.99
44531;BME280;30240;47.418;0.700;2023-04-28T02:32:49;100191.20483398438;;;14.96;93.99
44531;BME280;30240;47.418;0.700;2023-04-28T02:35:14;100190.43579101562;;;15.01;93.97
44531;BME280;30240;47.418;0.700;2023-04-28T02:37:39;100184.97924804688;;;14.95;93.9
44531;BME280;30240;47.418;0.700;2023-04-28T02:40:04;100178.09448242188;;;15.02;93.89
44531;BME280;30240;47.418;0.700;2023-04-28T02:42:28;100183.67309570312;;;14.99;93.83
44531;BME280;30240;47.418;0.700;2023-04-28T02:44:53;100183.67309570312;;;14.99;93.83
44531;BME280;30240;47.418;0.700;2023-04-28T02:47:18;100191.85791015625;;;14.96;93.78
44531;BME280;30240;47.418;0.700;2023-04-28T02:49:44;100193.3837890625;;;14.99;93.83
44531;BME280;30240;47.418;0.700;2023-04-28T02:52:09;100196.337890625;;;15.01;93.82
44531;BME280;30240;47.418;0.700;2023-04-28T02:54:33;100198.18115234375;;;15.02;93.73
44531;BME280;30240;47.418;0.700;2023-04-28T02:56:59;100198.18115234375;;;15.02;93.73
44531;BME280;30240;47.418;0.700;2023-04-28T02:59:24;100197.05200195312;;;15.03;93.77
44531;BME280;30240;47.418;0.700;2023-04-28T03:01:49;100197.98583984375;;;15.03;93.79
44531;BME280;30240;47.418;0.700;2023-04-28T03:04:14;100200.53100585938;;;14.99;93.73
44531;BME280;30240;47.418;0.700;2023-04-28T03:06:39;100196.923828125;;;15.03;93.7
44531;BME280;30240;47.418;0.700;2023-04-28T03:09:03;100198.06518554688;;;15.01;93.69
44531;BME280;30240;47.418;0.700;2023-04-28T03:11:29;100198.06518554688;;;15.01;93.69
44531;BME280;30240;47.418;0.700;2023-04-28T03:13:53;100198.27880859375;;;14.96;93.69
44531;BME280;30240;47.418;0.700;2023-04-28T03:16:19;100197.705078125;;;14.92;93.76
44531;BME280;30240;47.418;0.700;2023-04-28T03:18:43;100202.94799804688;;;14.92;93.94
44531;BME280;30240;47.418;0.700;2023-04-28T03:21:09;100198.5595703125;;;14.95;93.91
44531;BME280;30240;47.418;0.700;2023-04-28T03:23:34;100198.5595703125;;;14.95;93.91
44531;BME280;30240;47.418;0.700;2023-04-28T03:25:58;100193.38989257812;;;14.92;93.93
44531;BME280;30240;47.418;0.700;2023-04-28T03:28:23;100186.82250976562;;;14.89;93.91
44531;BME280;30240;47.418;0.700;2023-04-28T03:30:48;100191.85791015625;;;14.89;93.93
44531;BME280;30240;47.418;0.700;2023-04-28T03:33:13;100200.9033203125;;;14.83;94.16
44531;BME280;30240;47.418;0.700;2023-04-28T03:35:38;100200.9033203125;;;14.83;94.16
44531;BME280;30240;47.418;0.700;2023-04-28T03:38:03;100197.84545898438;;;14.78;94.28
44531;BME280;30240;47.418;0.700;2023-04-28T03:40:29;100200.56762695312;;;14.76;94.31
44531;BME280;30240;47.418;0.700;2023-04-28T03:42:53;100198.80981445312;;;14.77;94.4
44531;BME280;30240;47.418;0.700;2023-04-28T03:45:18;100195.19653320312;;;14.77;94.45
44531;BME280;30240;47.418;0.700;2023-04-28T03:47:44;100195.19653320312;;;14.77;94.45
44531;BME280;30240;47.418;0.700;2023-04-28T03:50:09;100196.64306640625;;;14.76;94.52
44531;BME280;30240;47.418;0.700;2023-04-28T03:52:34;100196.11206054688;;;14.71;94.57
44531;BME280;30240;47.418;0.700;2023-04-28T03:54:58;100198.68774414062;;;14.76;94.6
44531;BME280;30240;47.418;0.700;2023-04-28T03:57:24;100194.42138671875;;;14.73;94.6
44531;BME280;30240;47.418;0.700;2023-04-28T03:59:48;100194.42138671875;;;14.73;94.6
44531;BME280;30240;47.418;0.700;2023-04-28T04:02:13;100198.2666015625;;;14.77;94.55
44531;BME280;30240;47.418;0.700;2023-04-28T04:04:38;100196.01440429688;;;14.8;94.51
44531;BME280;30240;47.418;0.700;2023-04-28T04:07:03;100196.37451171875;;;14.74;94.47
44531;BME280;30240;47.418;0.700;2023-04-28T04:09:28;100195.15380859375;;;14.74;94.44
44531;BME280;30240;47.418;0.700;2023-04-28T04:11:53;100195.15380859375;;;14.74;94.44
44531;BME280;30240;47.418;0.700;2023-04-28T04:14:19;100193.2373046875;;;14.77;94.42
44531;BME280;30240;47.418;0.700;2023-04-28T04:16:45;100194.04907226562;;;14.76;94.38
44531;BME280;30240;47.418;0.700;2023-04-28T04:19:09;100191.00952148438;;;14.73;94.46
44531;BME280;30240;47.418;0.700;2023-04-28T04:21:33;100192.626953125;;;14.68;94.52
44531;BME280;30240;47.418;0.700;2023-04-28T04:23:58;100192.626953125;;;14.68;94.52
44531;BME280;30240;47.418;0.700;2023-04-28T04:26:24;100191.40625;;;14.71;94.67
44531;BME280;30240;47.418;0.700;2023-04-28T04:28:48;100199.32250976562;;;14.67;94.7
44531;BME280;30240;47.418;0.700;2023-04-28T04:31:14;100200.36010742188;;;14.71;94.72
44531;BME280;30240;47.418;0.700;2023-04-28T04:33:38;100194.56176757812;;;14.78;94.76
44531;BME280;30240;47.418;0.700;2023-04-28T04:36:04;100191.59545898438;;;14.73;94.7
44531;BME280;30240;47.418;0.700;2023-04-28T04:38:29;100191.59545898438;;;14.73;94.7
44531;BME280;30240;47.418;0.700;2023-04-28T04:40:53;100186.52954101562;;;14.7;94.7
44531;BME280;30240;47.418;0.700;2023-04-28T04:43:19;100191.93725585938;;;14.7;94.75
44531;BME280;30240;47.418;0.700;2023-04-28T04:45:44;100191.76635742188;;;14.71;94.73
44531;BME280;30240;47.418;0.700;2023-04-28T04:48:09;100194.43969726562;;;14.71;94.67
44531;BME280;30240;47.418;0.700;2023-04-28T04:50:34;100194.43969726562;;;14.71;94.67
44531;BME280;30240;47.418;0.700;2023-04-28T04:52:58;100192.38891601562;;;14.71;94.69
44531;BME280;30240;47.418;0.700;2023-04-28T04:55:24;100195.52612304688;;;14.73;94.67
44531;BME280;30240;47.418;0.700;2023-04-28T04:57:48;100201.19018554688;;;14.66;94.67
44531;BME280;30240;47.418;0.700;2023-04-28T05:00:14;100203.11889648438;;;14.66;94.73
44531;BME280;30240;47.418;0.700;2023-04-28T05:02:39;100203.11889648438;;;14.66;94.73
44531;BME280;30240;47.418;0.700;2023-04-28T05:05:04;100208.9599609375;;;14.68;94.72
44531;BME280;30240;47.418;0.700;2023-04-28T05:07:29;100209.56420898438;;;14.64;94.76
44531;BME280;30240;47.418;0.700;2023-04-28T05:09:53;100214.11743164062;;;14.68;94.78
44531;BME280;30240;47.418;0.700;2023-04-28T05:12:18;100212.68920898438;;;14.74;94.76
44531;BME280;30240;47.418;0.700;2023-04-28T05:14:43;100212.68920898438;;;14.74;94.76
44531;BME280;30240;47.418;0.700;2023-04-28T05:17:08;100214.75219726562;;;14.68;94.71
44531;BME280;30240;47.418;0.700;2023-04-28T05:19:33;100208.8134765625;;;14.73;94.71
44531;BME280;30240;47.418;0.700;2023-04-28T05:21:59;100210.04638671875;;;14.74;94.7
44531;BME280;30240;47.418;0.700;2023-04-28T05:24:23;100218.89038085938;;;14.8;94.68
44531;BME280;30240;47.418;0.700;2023-04-28T05:26:49;100218.89038085938;;;14.8;94.68
44531;BME280;30240;47.418;0.700;2023-04-28T05:29:13;100220.4833984375;;;14.77;94.64
44531;BME280;30240;47.418;0.700;2023-04-28T05:31:38;100229.11987304688;;;14.7;94.63
44531;BME280;30240;47.418;0.700;2023-04-28T05:34:03;100231.50024414062;;;14.7;94.71
44531;BME280;30240;47.418;0.700;2023-04-28T05:36:29;100230.71899414062;;;14.73;94.81
44531;BME280;30240;47.418;0.700;2023-04-28T05:38:54;100230.71899414062;;;14.73;94.81
44531;BME280;30240;47.418;0.700;2023-04-28T05:41:18;100233.02612304688;;;14.78;94.84
44531;BME280;30240;47.418;0.700;2023-04-28T05:43:43;100237.63427734375;;;14.78;94.79
44531;BME280;30240;47.418;0.700;2023-04-28T05:46:08;100239.37377929688;;;14.78;94.7
44531;BME280;30240;47.418;0.700;2023-04-28T05:48:33;100243.83544921875;;;14.83;94.59
44531;BME280;30240;47.418;0.700;2023-04-28T05:50:58;100243.83544921875;;;14.83;94.59
44531;BME280;30240;47.418;0.700;2023-04-28T05:53:24;100245.08666992188;;;15.03;94.44
44531;BME280;30240;47.418;0.700;2023-04-28T05:55:49;100247.88818359375;;;14.91;94.29
44531;BME280;30240;47.418;0.700;2023-04-28T05:58:14;100247.63793945312;;;15.05;94.27
44531;BME280;30240;47.418;0.700;2023-04-28T06:00:38;100248.1689453125;;;14.96;94.18
44531;BME280;30240;47.418;0.700;2023-04-28T06:03:03;100247.10083007812;;;14.99;94.04
44531;BME280;30240;47.418;0.700;2023-04-28T06:05:29;100247.10083007812;;;14.99;94.04
44531;BME280;30240;47.418;0.700;2023-04-28T06:07:54;100251.77612304688;;;15.03;94.05
44531;BME280;30240;47.418;0.700;2023-04-28T06:10:19;100252.96630859375;;;14.99;94.05
44531;BME280;30240;47.418;0.700;2023-04-28T06:12:44;100247.96752929688;;;15.06;94.08
44531;BME280;30240;47.418;0.700;2023-04-28T06:15:09;100248.79150390625;;;15.06;93.9
44531;BME280;30240;47.418;0.700;2023-04-28T06:17:33;100248.79150390625;;;15.06;93.9
44531;BME280;30240;47.418;0.700;2023-04-28T06:19:59;100257.64770507812;;;15.06;93.68
44531;BME280;30240;47.418;0.700;2023-04-28T06:22:24;100264.31274414062;;;15.23;93.64
44531;BME280;30240;47.418;0.700;2023-04-28T06:24:49;100264.47143554688;;;15.19;93.4
44531;BME280;30240;47.418;0.700;2023-04-28T06:27:13;100259.62524414062;;;15.25;93.44
44531;BME280;30240;47.418;0.700;2023-04-28T06:29:39;100259.62524414062;;;15.25;93.44
44531;BME280;30240;47.418;0.700;2023-04-28T06:32:04;100259.09423828125;;;15.32;93.41
44531;BME280;30240;47.418;0.700;2023-04-28T06:34:28;100258.0322265625;;;15.3;93.16
44531;BME280;30240;47.418;0.700;2023-04-28T06:36:53;100252.685546875;;;15.36;93.04
44531;BME280;30240;47.418;0.700;2023-04-28T06:39:18;100251.97143554688;;;15.42;92.92
44531;BME280;30240;47.418;0.700;2023-04-28T06:41:43;100251.97143554688;;;15.42;92.92
44531;BME280;30240;47.418;0.700;2023-04-28T06:44:08;100257.5927734375;;;15.3;92.7
44531;BME280;30240;47.418;0.700;2023-04-28T06:46:35;100251.08032226562;;;15.5;92.73
44531;BME280;30240;47.418;0.700;2023-04-28T06:48:58;100255.75561523438;;;15.33;92.56
44531;BME280;30240;47.418;0.700;2023-04-28T06:51:23;100257.41577148438;;;15.57;92.46
44531;BME280;30240;47.418;0.700;2023-04-28T06:53:49;100257.41577148438;;;15.57;92.46
44531;BME280;30240;47.418;0.700;2023-04-28T06:56:13;100250.72021484375;;;15.53;92.23
44531;BME280;30240;47.418;0.700;2023-04-28T06:58:38;100248.40698242188;;;15.37;92.1
44531;BME280;30240;47.418;0.700;2023-04-28T07:01:03;100244.15893554688;;;15.55;91.72
44531;BME280;30240;47.418;0.700;2023-04-28T07:03:28;100242.2607421875;;;15.69;91.49
44531;BME280;30240;47.418;0.700;2023-04-28T07:05:54;100242.2607421875;;;15.69;91.49
44531;BME280;30240;47.418;0.700;2023-04-28T07:08:18;100244.61059570312;;;15.61;91.12
44531;BME280;30240;47.418;0.700;2023-04-28T07:10:43;100244.76318359375;;;15.98;91.06
44531;BME280;30240;47.418;0.700;2023-04-28T07:13:08;100245.86181640625;;;16.21;90.58
44531;BME280;30240;47.418;0.700;2023-04-28T07:15:33;100250.0732421875;;;15.77;89.91
44531;BME280;30240;47.418;0.700;2023-04-28T07:17:58;100250.0732421875;;;15.77;89.91
44531;BME280;30240;47.418;0.700;2023-04-28T07:20:23;100249.853515625;;;15.99;90.29
44531;BME280;30240;47.418;0.700;2023-04-28T07:22:48;100255.37719726562;;;15.85;90.5
44531;BME280;30240;47.418;0.700;2023-04-28T07:25:14;100257.97119140625;;;16.34;89.91
44531;BME280;30240;47.418;0.700;2023-04-28T07:27:38;100259.82666015625;;;16.97;88.55
44531;BME280;30240;47.418;0.700;2023-04-28T07:30:04;100259.82666015625;;;16.97;88.55
44531;BME280;30240;47.418;0.700;2023-04-28T07:32:29;100252.82592773438;;;16.85;87.78
44531;BME280;30240;47.418;0.700;2023-04-28T07:34:53;100245.1416015625;;;16.99;87.59
44531;BME280;30240;47.418;0.700;2023-04-28T07:37:19;100245.15380859375;;;17.28;86.08
44531;BME280;30240;47.418;0.700;2023-04-28T07:39:43;100239.82543945312;;;17.49;85.28
44531;BME280;30240;47.418;0.700;2023-04-28T07:42:09;100232.78198242188;;;17.66;85.05
44531;BME280;30240;47.418;0.700;2023-04-28T07:44:34;100232.78198242188;;;17.66;85.05
44531;BME280;30240;47.418;0.700;2023-04-28T07:46:59;100218.408203125;;;17.38;84.33
44531;BME280;30240;47.418;0.700;2023-04-28T07:49:23;100197.79663085938;;;18.04;84.0
44531;BME280;30240;47.418;0.700;2023-04-28T07:51:48;100198.83422851562;;;18.17;83.73
44531;BME280;30240;47.418;0.700;2023-04-28T07:54:14;100199.68872070312;;;18.51;81.94
44531;BME280;30240;47.418;0.700;2023-04-28T07:56:38;100199.68872070312;;;18.51;81.94
44531;BME280;30240;47.418;0.700;2023-04-28T07:59:03;100190.53955078125;;;18.76;81.17
44531;BME280;30240;47.418;0.700;2023-04-28T08:01:28;100189.44702148438;;;18.7;81.35
44531;BME280;30240;47.418;0.700;2023-04-28T08:03:53;100179.5654296875;;;18.12;82.67
44531;BME280;30240;47.418;0.700;2023-04-28T08:06:19;100175.68969726562;;;18.28;82.41
44531;BME280;30240;47.418;0.700;2023-04-28T08:08:43;100175.68969726562;;;18.28;82.41
44531;BME280;30240;47.418;0.700;2023-04-28T08:11:08;100194.43969726562;;;18.94;81.22
44531;BME280;30240;47.418;0.700;2023-04-28T08:13:33;100188.49487304688;;;19.04;79.83
44531;BME280;30240;47.418;0.700;2023-04-28T08:15:59;100211.1572265625;;;18.76;81.16
44531;BME280;30240;47.418;0.700;2023-04-28T08:18:23;100204.52880859375;;;19.12;80.39
44531;BME280;30240;47.418;0.700;2023-04-28T08:20:48;100204.52880859375;;;19.12;80.39
44531;BME280;30240;47.418;0.700;2023-04-28T08:23:13;100196.17919921875;;;17.96;82.15
44531;BME280;30240;47.418;0.700;2023-04-28T08:25:38;100202.59399414062;;;18.42;81.79
44531;BME280;30240;47.418;0.700;2023-04-28T08:28:04;100186.38916015625;;;18.07;81.74
44531;BME280;30240;47.418;0.700;2023-04-28T08:30:28;100196.59423828125;;;18.39;82.58
44531;BME280;30240;47.418;0.700;2023-04-28T08:32:54;100196.59423828125;;;18.39;82.58
44531;BME280;30240;47.418;0.700;2023-04-28T08:35:19;100209.82666015625;;;18.73;81.69
44531;BME280;30240;47.418;0.700;2023-04-28T08:37:43;100213.818359375;;;18.55;81.95
44531;BME280;30240;47.418;0.700;2023-04-28T08:40:09;100207.03125;;;18.69;81.18
44531;BME280;30240;47.418;0.700;2023-04-28T08:42:34;100207.861328125;;;18.2;81.87
44531;BME280;30240;47.418;0.700;2023-04-28T08:44:59;100207.861328125;;;18.2;81.87
44531;BME280;30240;47.418;0.700;2023-04-28T08:47:28;100220.8984375;;;18.73;80.8
44531;BME280;30240;47.418;0.700;2023-04-28T08:49:49;100236.5966796875;;;19.01;79.85
44531;BME280;30240;47.418;0.700;2023-04-28T08:52:16;100243.93920898438;;;18.66;81.12
44531;BME280;30240;47.418;0.700;2023-04-28T08:54:39;100246.435546875;;;18.28;81.51
44531;BME280;30240;47.418;0.700;2023-04-28T08:57:07;100246.435546875;;;18.28;81.51
44531;BME280;30240;47.418;0.700;2023-04-28T08:59:29;100250.7568359375;;;18.32;81.89
44531;BME280;30240;47.418;0.700;2023-04-28T09:01:53;100258.51440429688;;;18.48;81.54
44531;BME280;30240;47.418;0.700;2023-04-28T09:04:19;100260.9619140625;;;18.77;80.68
44531;BME280;30240;47.418;0.700;2023-04-28T09:06:43;100271.96655273438;;;19.23;80.11
44531;BME280;30240;47.418;0.700;2023-04-28T09:09:20;100266.015625;;;18.87;80.23
44531;BME280;30240;47.418;0.700;2023-04-28T09:11:34;100266.015625;;;18.87;80.23
44531;BME280;30240;47.418;0.700;2023-04-28T09:14:11;100257.48291015625;;;18.78;81.14
44531;BME280;30240;47.418;0.700;2023-04-28T09:16:38;100255.93872070312;;;19.21;78.5
44531;BME280;30240;47.418;0.700;2023-04-28T09:18:55;100266.85180664062;;;19.15;79.67
44531;BME280;30240;47.418;0.700;2023-04-28T09:21:13;100252.03247070312;;;19.01;79.46
44531;BME280;30240;47.418;0.700;2023-04-28T09:23:46;100252.03247070312;;;19.01;79.46
44531;BME280;30240;47.418;0.700;2023-04-28T09:26:04;100247.32666015625;;;19.01;79.21
44531;BME280;30240;47.418;0.700;2023-04-28T09:28:29;100242.3095703125;;;18.62;80.51
44531;BME280;30240;47.418;0.700;2023-04-28T09:30:54;100241.59545898438;;;19.12;78.86
44531;BME280;30240;47.418;0.700;2023-04-28T09:33:19;100245.31860351562;;;19.19;79.69
44531;BME280;30240;47.418;0.700;2023-04-28T09:35:44;100245.31860351562;;;19.19;79.69
44531;BME280;30240;47.418;0.700;2023-04-28T09:38:08;100246.12426757812;;;19.79;77.32
44531;BME280;30240;47.418;0.700;2023-04-28T09:40:48;100242.82836914062;;;21.61;76.95
44531;BME280;30240;47.418;0.700;2023-04-28T09:42:58;100225.95825195312;;;21.4;73.78
44531;BME280;30240;47.418;0.700;2023-04-28T09:45:23;100234.423828125;;;20.12;75.57
44531;BME280;30240;47.418;0.700;2023-04-28T09:47:49;100234.423828125;;;20.12;75.57
44531;BME280;30240;47.418;0.700;2023-04-28T09:50:15;100233.57543945312;;;20.79;75.96
44531;BME280;30240;47.418;0.700;2023-04-28T09:52:40;100236.56005859375;;;19.73;77.22
44531;BME280;30240;47.418;0.700;2023-04-28T09:55:05;100243.19458007812;;;19.92;76.87
44531;BME280;30240;47.418;0.700;2023-04-28T09:57:30;100236.5966796875;;;19.45;78.3
44531;BME280;30240;47.418;0.700;2023-04-28T09:59:54;100236.5966796875;;;19.45;78.3
44531;BME280;30240;47.418;0.700;2023-04-28T10:02:20;100235.71166992188;;;19.77;77.4
44531;BME280;30240;47.418;0.700;2023-04-28T10:04:45;100201.79443359375;;;20.78;75.72
44531;BME280;30240;47.418;0.700;2023-04-28T10:07:09;100200.01831054688;;;20.75;75.81
44531;BME280;30240;47.418;0.700;2023-04-28T10:09:33;100196.39892578125;;;21.75;73.35
44531;BME280;30240;47.418;0.700;2023-04-28T10:11:59;100196.39892578125;;;21.75;73.35
44531;BME280;30240;47.418;0.700;2023-04-28T10:14:23;100212.00561523438;;;21.23;74.0
44531;BME280;30240;47.418;0.700;2023-04-28T10:16:49;100222.24731445312;;;20.12;75.62
44531;BME280;30240;47.418;0.700;2023-04-28T10:19:13;100227.84423828125;;;19.99;76.76
44531;BME280;30240;47.418;0.700;2023-04-28T10:21:45;100242.29736328125;;;20.34;77.05
44531;BME280;30240;47.418;0.700;2023-04-28T10:24:08;100242.29736328125;;;20.34;77.05
44531;BME280;30240;47.418;0.700;2023-04-28T10:27:03;100248.6083984375;;;19.49;77.83
44531;BME280;30240;47.418;0.700;2023-04-28T10:28:54;100246.8994140625;;;19.1;77.9
44531;BME280;30240;47.418;0.700;2023-04-28T10:31:20;100255.82885742188;;;19.47;77.58
44531;BME280;30240;47.418;0.700;2023-04-28T10:33:43;100263.2080078125;;;19.4;77.2
44531;BME280;30240;47.418;0.700;2023-04-28T10:36:09;100263.2080078125;;;19.4;77.2
44531;BME280;30240;47.418;0.700;2023-04-28T10:38:35;100261.93237304688;;;19.64;77.67
44531;BME280;30240;47.418;0.700;2023-04-28T10:39:07;100261.93237304688;;;19.64;77.67
44531;BME280;30240;47.418;0.700;2023-04-28T10:40:59;100264.51416015625;;;19.89;77.13
44531;BME280;30240;47.418;0.700;2023-04-28T10:43:36;100269.00024414062;;;19.95;76.77
44531;BME280;30240;47.418;0.700;2023-04-28T10:46:00;100273.40698242188;;;19.75;77.45
44531;BME280;30240;47.418;0.700;2023-04-28T10:48:14;100266.1865234375;;;20.16;76.74
44531;BME280;30240;47.418;0.700;2023-04-28T10:51:28;100266.1865234375;;;20.16;76.74
44531;BME280;30240;47.418;0.700;2023-04-28T10:53:03;100260.595703125;;;19.74;77.11
44531;BME280;30240;47.418;0.700;2023-04-28T10:55:30;100256.298828125;;;20.67;76.31
44531;BME280;30240;47.418;0.700;2023-04-28T10:58:30;100226.59301757812;;;21.41;74.46
44531;BME280;30240;47.418;0.700;2023-04-28T11:00:26;100205.04760742188;;;22.1;73.47
44531;BME280;30240;47.418;0.700;2023-04-28T11:02:44;100205.04760742188;;;22.1;73.47
44531;BME280;30240;47.418;0.700;2023-04-28T11:05:09;100200.64086914062;;;21.29;75.07
44531;BME280;30240;47.418;0.700;2023-04-28T11:07:33;100194.189453125;;;21.24;74.65
44531;BME280;30240;47.418;0.700;2023-04-28T11:09:59;100202.50244140625;;;21.54;73.59
44531;BME280;30240;47.418;0.700;2023-04-28T11:12:23;100180.21850585938;;;21.99;72.81
44531;BME280;30240;47.418;0.700;2023-04-28T11:14:49;100180.21850585938;;;21.99;72.81
44531;BME280;30240;47.418;0.700;2023-04-28T11:17:13;100187.78076171875;;;21.93;72.78
44531;BME280;30240;47.418;0.700;2023-04-28T11:19:40;100196.67358398438;;;21.13;73.83